Time;durP1;ratioP1;P1;durP2;ratioP2;P2;SDS_P1;SDS_P2;PMS_P1;PMS_P2;Temp;Humidity;BMP_temperature;BMP_pressure;BME280_temperature;BME280_humidity;BME280_pressure;Samples;Min_cycle;Max_cycle;Signal;HPM_P1;HPM_P2
2022/03/05 00:01:39;;;;;;;24.63;12.43;;;;;;;-3.47;84.41;102187.50;5072992;28;20461;-78
2022/03/05 00:04:04;;;;;;;22.55;12.40;;;;;;;-3.47;84.75;102181.44;5072941;28;20062;-79
2022/03/05 00:06:30;;;;;;;26.27;14.00;;;;;;;-3.50;85.14;102177.13;5072934;28;20457;-79
2022/03/05 00:08:55;;;;;;;28.75;14.70;;;;;;;-3.52;85.13;102185.81;5073003;28;20060;-76
2022/03/05 00:11:21;;;;;;;29.45;15.45;;;;;;;-3.57;85.16;102185.88;5072743;28;20037;-79
2022/03/05 00:13:46;;;;;;;29.65;14.90;;;;;;;-3.59;85.62;102190.25;5072841;28;20036;-79
2022/03/05 00:16:12;;;;;;;27.02;15.30;;;;;;;-3.56;86.52;102190.22;5072562;28;20465;-80
2022/03/05 00:18:37;;;;;;;28.63;15.60;;;;;;;-3.53;86.63;102189.31;5072790;28;20078;-79
2022/03/05 00:21:03;;;;;;;29.00;14.90;;;;;;;-3.53;86.74;102200.59;5072735;28;20035;-79
2022/03/05 00:23:28;;;;;;;29.95;15.05;;;;;;;-3.58;86.57;102190.22;5072589;28;20032;-79
2022/03/05 00:25:54;;;;;;;28.45;13.88;;;;;;;-3.62;85.82;102188.53;5072295;28;20056;-78
2022/03/05 00:28:19;;;;;;;25.88;14.10;;;;;;;-3.66;85.78;102189.44;5072300;28;20043;-78
2022/03/05 00:30:45;;;;;;;26.65;14.13;;;;;;;-3.69;85.34;102191.22;5072257;28;20045;-78
2022/03/05 00:33:10;;;;;;;27.70;14.43;;;;;;;-3.73;85.47;102193.84;5072297;28;20033;-79
2022/03/05 00:35:36;;;;;;;26.35;13.88;;;;;;;-3.76;85.36;102198.22;5072534;28;20035;-79
2022/03/05 00:38:01;;;;;;;29.83;15.05;;;;;;;-3.79;85.37;102201.69;5072508;28;20453;-78
2022/03/05 00:40:27;;;;;;;26.58;13.60;;;;;;;-3.83;85.51;102196.53;5072228;28;20145;-79
2022/03/05 00:42:52;;;;;;;25.13;13.02;;;;;;;-3.88;85.55;102191.38;5072455;28;20033;-79
2022/03/05 00:45:18;;;;;;;27.80;13.27;;;;;;;-3.91;85.59;102205.28;5072016;28;20102;-79
2022/03/05 00:47:43;;;;;;;27.35;12.70;;;;;;;-3.95;85.54;102206.16;5054315;28;20032;-77
2022/03/05 00:50:09;;;;;;;28.95;14.20;;;;;;;-3.96;85.64;102207.03;5072708;28;20033;-78
2022/03/05 00:52:37;;;;;;;32.58;14.30;;;;;;;-3.96;85.47;102204.44;5072434;28;20131;-79
2022/03/05 00:55:03;;;;;;;26.40;13.48;;;;;;;-3.95;85.48;102205.31;5072413;28;20034;-75
2022/03/05 00:57:29;;;;;;;29.25;13.90;;;;;;;-3.94;86.03;102201.81;5072763;28;20103;-79
2022/03/05 00:59:54;;;;;;;28.05;13.60;;;;;;;-3.94;85.89;102207.00;5072657;28;20029;-79
2022/03/05 01:02:20;;;;;;;26.58;12.57;;;;;;;-3.97;86.00;102207.03;5072529;28;20036;-78
2022/03/05 01:04:45;;;;;;;25.40;13.00;;;;;;;-4.00;86.00;102210.56;5054707;28;20372;-79
2022/03/05 01:07:11;;;;;;;28.13;12.93;;;;;;;-4.02;86.13;102212.28;5072482;28;20111;-78
2022/03/05 01:09:36;;;;;;;29.02;13.88;;;;;;;-4.06;86.47;102210.59;5072546;28;20040;-79
2022/03/05 01:12:02;;;;;;;28.05;13.68;;;;;;;-4.08;86.14;102209.72;5075248;28;20032;-79
2022/03/05 01:14:27;;;;;;;28.80;14.02;;;;;;;-4.11;86.23;102205.41;5075539;28;20451;-79
2022/03/05 01:16:52;;;;;;;27.23;13.80;;;;;;;-4.12;86.68;102214.09;5057886;28;20314;-78
2022/03/05 01:19:18;;;;;;;28.10;13.77;;;;;;;-4.14;86.48;102217.59;5075449;28;20086;-79
2022/03/05 01:21:43;;;;;;;24.50;13.85;;;;;;;-4.16;86.02;102212.41;5057820;28;20056;-79
2022/03/05 01:24:09;;;;;;;25.80;13.45;;;;;;;-4.15;86.63;102213.25;5075655;28;20032;-79
2022/03/05 01:26:34;;;;;;;28.67;14.05;;;;;;;-4.16;86.38;102208.94;5074975;28;20076;-78
2022/03/05 01:29:00;;;;;;;32.53;14.63;;;;;;;-4.19;86.47;102221.97;5075710;28;20032;-79
2022/03/05 01:31:25;;;;;;;25.05;12.90;;;;;;;-4.21;86.60;102211.56;5075441;28;20067;-79
2022/03/05 01:33:51;;;;;;;30.88;13.52;;;;;;;-4.21;86.76;102211.56;5075470;28;20037;-79
2022/03/05 01:36:16;;;;;;;31.77;14.85;;;;;;;-4.24;86.86;102206.38;5074998;28;20032;-78
2022/03/05 01:38:42;;;;;;;29.02;14.43;;;;;;;-4.25;86.83;102209.88;5057596;28;20043;-79
2022/03/05 01:41:07;;;;;;;27.88;14.23;;;;;;;-4.27;86.99;102206.41;5075324;28;20063;-76
2022/03/05 01:43:32;;;;;;;27.75;13.73;;;;;;;-4.30;87.07;102209.00;5074942;28;20480;-79
2022/03/05 01:45:58;;;;;;;31.23;14.73;;;;;;;-4.32;86.87;102209.03;5075093;28;20428;-79
2022/03/05 01:48:23;;;;;;;26.10;12.57;;;;;;;-4.33;86.55;102209.94;5075173;28;20072;-78
2022/03/05 01:50:49;;;;;;;33.13;14.20;;;;;;;-4.35;86.80;102206.44;5074936;28;20082;-78
2022/03/05 01:53:15;;;;;;;29.75;13.43;;;;;;;-4.35;87.35;102205.59;5040358;28;20048;-77
2022/03/05 01:55:42;;;;;;;28.60;13.85;;;;;;;-4.36;86.88;102206.47;5075117;28;20028;-78
2022/03/05 01:58:08;;;;;;;30.10;14.32;;;;;;;-4.40;87.35;102216.03;5057113;28;20071;-78
2022/03/05 02:00:34;;;;;;;27.40;13.15;;;;;;;-4.44;87.52;102209.97;5074738;28;20055;-78
2022/03/05 02:02:59;;;;;;;28.15;13.68;;;;;;;-4.46;87.04;102213.47;5075095;28;20079;-79
2022/03/05 02:05:24;;;;;;;29.77;14.40;;;;;;;-4.47;87.19;102211.72;5057007;28;20067;-78
2022/03/05 02:07:50;;;;;;;31.15;13.63;;;;;;;-4.48;87.28;102212.59;5074871;28;20042;-79
2022/03/05 02:10:17;;;;;;;35.17;14.95;;;;;;;-4.52;86.94;102206.56;5074787;28;20051;-78
2022/03/05 02:12:42;;;;;;;32.83;15.15;;;;;;;-4.52;86.81;102208.28;5056947;28;20039;-79
2022/03/05 02:15:08;;;;;;;34.17;14.60;;;;;;;-4.52;87.32;102208.28;5074464;28;20045;-79
2022/03/05 02:17:34;;;;;;;30.35;13.50;;;;;;;-4.52;87.64;102205.69;5074546;28;20064;-78
2022/03/05 02:20:00;;;;;;;31.42;14.55;;;;;;;-4.54;87.83;102208.28;5074543;28;20437;-78
2022/03/05 02:22:25;;;;;;;29.30;13.98;;;;;;;-4.56;87.92;102201.41;5073850;28;20033;-79
2022/03/05 02:24:53;;;;;;;33.47;15.40;;;;;;;-4.57;87.36;102203.13;5074557;28;20094;-79
2022/03/05 02:27:21;;;;;;;31.10;14.00;;;;;;;-4.57;87.57;102199.66;5074610;28;20052;-78
2022/03/05 02:29:47;;;;;;;33.38;14.68;;;;;;;-4.57;87.75;102199.66;5074671;28;20038;-79
2022/03/05 02:32:12;;;;;;;32.47;14.98;;;;;;;-4.57;88.35;102202.25;5074349;28;20119;-77
2022/03/05 02:34:37;;;;;;;28.45;13.55;;;;;;;-4.59;88.49;102206.63;5074190;28;20030;-79
2022/03/05 02:37:03;;;;;;;30.95;15.10;;;;;;;-4.64;88.10;102198.84;5056725;28;20037;-79
2022/03/05 02:39:28;;;;;;;31.08;14.13;;;;;;;-4.67;88.24;102199.72;5074308;28;20078;-79
2022/03/05 02:41:55;;;;;;;30.05;14.57;;;;;;;-4.71;87.78;102195.41;5074109;28;20063;-79
2022/03/05 02:44:22;;;;;;;31.02;14.23;;;;;;;-4.72;87.07;102188.47;5055928;28;20032;-78
2022/03/05 02:46:49;;;;;;;28.38;13.63;;;;;;;-4.74;87.06;102194.56;5074066;28;20048;-78
2022/03/05 02:49:14;;;;;;;31.05;14.40;;;;;;;-4.76;87.46;102186.78;5073940;28;20473;-75
2022/03/05 02:51:40;;;;;;;32.50;15.20;;;;;;;-4.78;87.70;102192.00;5074338;28;20047;-78
2022/03/05 02:54:05;;;;;;;28.50;13.93;;;;;;;-4.77;87.96;102200.63;5073791;28;20036;-78
2022/03/05 02:56:31;;;;;;;34.17;15.07;;;;;;;-4.76;88.64;102198.88;5073753;28;20119;-78
2022/03/05 02:58:56;;;;;;;35.67;15.38;;;;;;;-4.75;89.12;102198.88;5073985;28;20032;-79
2022/03/05 03:01:22;;;;;;;33.60;14.90;;;;;;;-4.77;89.02;102195.44;5074018;28;20025;-77
2022/03/05 03:03:47;;;;;;;32.35;14.50;;;;;;;-4.80;88.28;102193.72;5073871;28;20364;-78
2022/03/05 03:06:13;;;;;;;32.33;14.70;;;;;;;-4.82;88.54;102189.38;5039162;28;20530;-78
2022/03/05 03:08:38;;;;;;;36.58;15.43;;;;;;;-4.85;88.53;102194.59;5073944;28;20056;-78
2022/03/05 03:11:03;;;;;;;31.83;14.00;;;;;;;-4.86;88.18;102198.94;5073157;28;20029;-78
2022/03/05 03:13:29;;;;;;;32.47;14.32;;;;;;;-4.87;88.16;102191.16;5073822;28;20385;-77
2022/03/05 03:15:54;;;;;;;31.00;14.77;;;;;;;-4.89;88.20;102191.16;5055556;28;20044;-77
2022/03/05 03:18:19;;;;;;;30.13;14.38;;;;;;;-4.90;87.91;102184.25;5073326;28;20527;-76
2022/03/05 03:20:45;;;;;;;34.70;14.40;;;;;;;-4.92;88.15;102188.59;5073458;28;20044;-78
2022/03/05 03:23:10;;;;;;;29.88;14.82;;;;;;;-4.92;89.21;102187.72;5073681;28;20115;-78
2022/03/05 03:25:38;;;;;;;35.17;14.43;;;;;;;-4.93;89.39;102189.44;5072827;28;20036;-78
2022/03/05 03:28:05;;;;;;;33.95;14.48;;;;;;;-4.94;89.17;102185.16;5055641;28;20028;-78
2022/03/05 03:30:30;;;;;;;36.03;15.20;;;;;;;-4.96;89.25;102182.56;5073861;28;20032;-79
2022/03/05 03:32:56;;;;;;;32.50;14.57;;;;;;;-4.97;89.58;102188.59;5073340;28;20037;-78
2022/03/05 03:35:21;;;;;;;32.03;15.10;;;;;;;-4.99;89.48;102187.72;5073319;28;20029;-75
2022/03/05 03:37:47;;;;;;;32.42;14.57;;;;;;;-4.97;90.23;102185.13;5073211;28;20040;-78
2022/03/05 03:40:14;;;;;;;37.60;15.40;;;;;;;-5.00;90.19;102179.94;5073957;28;20480;-78
2022/03/05 03:42:40;;;;;;;32.80;13.63;;;;;;;-5.05;89.64;102173.94;5077846;28;20047;-78
2022/03/05 03:45:06;;;;;;;30.65;13.68;;;;;;;-5.08;89.33;102179.13;5075179;28;20036;-77
2022/03/05 03:47:32;;;;;;;32.67;14.80;;;;;;;-5.11;89.29;102187.78;5076205;28;20032;-78
2022/03/05 03:49:57;;;;;;;40.53;16.15;;;;;;;-5.09;89.79;102173.09;5076710;28;20047;-78
2022/03/05 03:52:23;;;;;;;35.53;14.90;;;;;;;-5.08;89.79;102173.94;5075411;28;20038;-75
2022/03/05 03:54:49;;;;;;;33.30;14.88;;;;;;;-5.11;89.07;102168.78;5074448;28;20028;-77
2022/03/05 03:57:15;;;;;;;34.85;15.05;;;;;;;-5.14;89.39;102175.69;5073294;28;20538;-77
2022/03/05 03:59:40;;;;;;;36.08;15.52;;;;;;;-5.16;89.20;102171.38;5073214;28;20036;-77
2022/03/05 04:02:06;;;;;;;41.13;15.88;;;;;;;-5.11;90.49;102174.81;5073634;28;20067;-78
2022/03/05 04:04:31;;;;;;;35.13;15.70;;;;;;;-5.06;90.75;102167.00;5072935;28;20131;-77
2022/03/05 04:09:41;;;;;;;35.88;15.25;;;;;;;-5.08;90.49;102166.16;5073252;28;20056;-80
2022/03/05 04:12:07;;;;;;;36.00;15.20;;;;;;;-5.13;90.19;102159.25;5073283;28;20461;-78
2022/03/05 04:14:32;;;;;;;36.90;15.57;;;;;;;-5.15;90.34;102171.38;5073232;28;20083;-78
2022/03/05 04:16:58;;;;;;;35.83;15.38;;;;;;;-5.18;90.76;102168.81;5072839;28;20048;-78
2022/03/05 04:19:23;;;;;;;39.45;16.40;;;;;;;-5.19;91.35;102167.06;5072798;28;20094;-77
2022/03/05 04:21:49;;;;;;;38.72;15.85;;;;;;;-5.20;91.29;102167.06;5072940;28;20033;-78
2022/03/05 04:24:14;;;;;;;37.45;15.27;;;;;;;-5.25;90.92;102169.69;5072638;28;20043;-78
2022/03/05 04:26:39;;;;;;;35.92;15.32;;;;;;;-5.27;90.31;102175.75;5054397;28;20143;-78
2022/03/05 04:29:05;;;;;;;32.47;14.23;;;;;;;-5.31;89.99;102173.16;5072981;28;20435;-77
2022/03/05 04:31:30;;;;;;;35.40;14.82;;;;;;;-5.33;89.95;102176.63;5072971;28;20028;-77
2022/03/05 04:33:56;;;;;;;34.70;15.40;;;;;;;-5.34;90.10;102180.94;5072830;28;20098;-78
2022/03/05 04:36:21;;;;;;;34.75;15.35;;;;;;;-5.38;90.04;102176.63;5072594;28;20034;-78
2022/03/05 04:38:47;;;;;;;34.78;15.18;;;;;;;-5.41;89.80;102181.81;5055043;28;20078;-78
2022/03/05 04:41:12;;;;;;;34.08;15.15;;;;;;;-5.44;89.78;102179.25;5073033;28;20029;-77
2022/03/05 04:43:37;;;;;;;39.00;15.60;;;;;;;-5.45;89.37;102184.44;5072274;28;20082;-78
2022/03/05 04:46:03;;;;;;;35.85;14.88;;;;;;;-5.44;90.44;102187.03;5074156;28;20116;-77
2022/03/05 04:48:28;;;;;;;37.83;15.60;;;;;;;-5.43;90.88;102187.88;5076226;28;20139;-75
2022/03/05 04:50:53;;;;;;;37.15;14.30;;;;;;;-5.44;90.40;102194.81;5076381;28;20491;-78
2022/03/05 04:53:21;;;;;;;41.63;14.90;;;;;;;-5.46;90.00;102193.97;5076212;28;20119;-78
2022/03/05 04:55:50;;;;;;;37.60;14.75;;;;;;;-5.49;89.63;102192.22;5058900;28;20028;-78
2022/03/05 04:58:16;;;;;;;34.35;14.68;;;;;;;-5.51;89.85;102193.09;5058628;28;20047;-78
2022/03/05 05:00:41;;;;;;;34.97;14.13;;;;;;;-5.54;89.65;102190.50;5075781;28;20384;-78
2022/03/05 05:03:07;;;;;;;38.58;15.38;;;;;;;-5.58;89.56;102189.66;5075618;28;20036;-78
2022/03/05 05:05:32;;;;;;;32.15;14.98;;;;;;;-5.61;89.42;102186.19;5075900;28;20028;-77
2022/03/05 05:07:58;;;;;;;33.15;14.65;;;;;;;-5.64;89.37;102181.91;5076006;28;20028;-78
2022/03/05 05:10:23;;;;;;;37.13;15.43;;;;;;;-5.64;89.19;102187.09;5075993;28;20448;-78
2022/03/05 05:12:49;;;;;;;36.60;16.08;;;;;;;-5.65;88.98;102187.09;5075405;28;20418;-77
2022/03/05 05:15:14;;;;;;;32.28;13.93;;;;;;;-5.68;89.16;102191.38;5075504;28;20028;-77
2022/03/05 05:17:40;;;;;;;33.25;14.18;;;;;;;-5.69;89.25;102193.97;5075762;28;20052;-78
2022/03/05 05:20:07;;;;;;;34.28;14.73;;;;;;;-5.72;89.04;102194.00;5075657;28;20035;-79
2022/03/05 05:22:33;;;;;;;35.75;15.13;;;;;;;-5.73;89.00;102189.66;5057738;28;20033;-74
2022/03/05 05:25:00;;;;;;;34.60;15.10;;;;;;;-5.73;88.92;102195.72;5058376;28;20104;-79
2022/03/05 05:27:26;;;;;;;38.10;14.88;;;;;;;-5.75;89.24;102194.00;5075917;28;20058;-77
2022/03/05 05:29:51;;;;;;;32.67;13.60;;;;;;;-5.77;89.05;102191.41;5075514;28;20036;-78
2022/03/05 05:32:17;;;;;;;36.95;15.70;;;;;;;-5.79;89.11;102193.16;5075331;28;20037;-78
2022/03/05 05:34:43;;;;;;;35.28;14.25;;;;;;;-5.79;89.80;102187.97;5075483;28;20188;-79
2022/03/05 05:37:08;;;;;;;39.95;15.73;;;;;;;-5.81;89.48;102192.25;5075837;28;20063;-79
2022/03/05 05:39:34;;;;;;;34.40;14.95;;;;;;;-5.81;89.53;102199.19;5075209;28;20472;-77
2022/03/05 05:41:59;;;;;;;36.58;16.10;;;;;;;-5.80;89.59;102198.34;5057065;28;20206;-79
2022/03/05 05:44:25;;;;;;;33.10;15.48;;;;;;;-5.81;89.73;102202.63;5075303;28;20032;-78
2022/03/05 05:46:51;;;;;;;40.53;15.43;;;;;;;-5.79;89.63;102203.53;5057165;28;20035;-78
2022/03/05 05:49:16;;;;;;;39.78;14.27;;;;;;;-5.78;89.43;102204.38;5075243;28;20039;-78
2022/03/05 05:51:41;;;;;;;32.38;14.95;;;;;;;-5.78;89.50;102205.22;5074686;28;20103;-78
2022/03/05 05:54:08;;;;;;;39.78;16.63;;;;;;;-5.75;89.32;102201.78;5075134;28;20101;-78
2022/03/05 05:56:34;;;;;;;41.83;16.63;;;;;;;-5.74;90.16;102209.56;5075119;28;20058;-79
2022/03/05 05:58:59;;;;;;;47.90;18.35;;;;;;;-5.72;90.61;102209.56;5074657;28;20033;-78
2022/03/05 06:01:25;;;;;;;38.28;15.38;;;;;;;-5.74;91.05;102212.16;5074936;28;20043;-78
2022/03/05 06:03:52;;;;;;;38.95;15.93;;;;;;;-5.75;91.33;102204.38;5056936;28;20033;-78
2022/03/05 06:06:18;;;;;;;39.60;16.05;;;;;;;-5.73;91.97;102210.41;5074701;28;20495;-78
2022/03/05 06:08:43;;;;;;;36.05;15.50;;;;;;;-5.75;92.10;102210.41;5074661;28;20082;-78
2022/03/05 06:11:09;;;;;;;35.78;14.93;;;;;;;-5.77;91.65;102206.09;5074409;28;20024;-79
2022/03/05 06:13:34;;;;;;;30.13;14.27;;;;;;;-5.80;91.39;102203.53;5056784;28;20401;-78
2022/03/05 06:16:00;;;;;;;42.72;16.40;;;;;;;-5.83;91.14;102206.13;5074815;28;20029;-79
2022/03/05 06:18:25;;;;;;;43.10;15.65;;;;;;;-5.89;90.76;102200.06;5056766;28;20037;-79
2022/03/05 06:20:51;;;;;;;38.72;15.45;;;;;;;-5.87;91.30;102211.31;5074870;28;20024;-78
2022/03/05 06:23:18;;;;;;;38.58;15.48;;;;;;;-5.86;91.39;102218.19;5074158;28;20126;-79
2022/03/05 06:25:44;;;;;;;37.30;16.10;;;;;;;-5.84;91.70;102215.59;5074394;28;20059;-78
2022/03/05 06:28:09;;;;;;;38.70;15.95;;;;;;;-5.82;91.66;102213.00;5056178;28;20185;-79
2022/03/05 06:30:35;;;;;;;40.88;16.55;;;;;;;-5.80;91.91;102229.44;5074071;28;20044;-79
2022/03/05 06:33:00;;;;;;;41.13;16.17;;;;;;;-5.77;92.17;102230.31;5073748;28;20103;-77
2022/03/05 06:35:26;;;;;;;39.47;16.45;;;;;;;-5.77;92.53;102229.44;5073940;28;20033;-78
2022/03/05 06:37:51;;;;;;;35.90;16.05;;;;;;;-5.78;92.58;102238.09;5073801;28;20518;-78
2022/03/05 06:40:17;;;;;;;35.40;16.02;;;;;;;-5.80;92.42;102232.91;5073991;28;20449;-78
2022/03/05 06:42:44;;;;;;;41.28;16.48;;;;;;;-5.79;92.23;102234.63;5055842;28;20036;-76
2022/03/05 06:45:10;;;;;;;39.30;15.60;;;;;;;-5.78;91.82;102236.34;5073637;28;20043;-77
2022/03/05 06:47:36;;;;;;;35.60;15.25;;;;;;;-5.78;92.19;102238.09;5073324;28;20064;-78
2022/03/05 06:50:03;;;;;;;32.95;15.63;;;;;;;-5.77;92.02;102239.81;5073496;28;20094;-78
2022/03/05 06:52:29;;;;;;;44.08;17.17;;;;;;;-5.76;91.87;102237.22;5073352;28;20070;-78
2022/03/05 06:54:54;;;;;;;41.58;17.50;;;;;;;-5.71;92.10;102240.66;5073509;28;20444;-78
2022/03/05 06:57:20;;;;;;;46.95;18.27;;;;;;;-5.63;92.10;102240.66;5073391;28;20461;-79
2022/03/05 06:59:45;;;;;;;44.03;17.83;;;;;;;-5.53;92.77;102239.78;5055429;28;20366;-76
2022/03/05 07:02:10;;;;;;;56.22;19.27;;;;;;;-5.42;93.32;102238.91;5073270;28;20114;-79
2022/03/05 07:04:36;;;;;;;46.83;18.25;;;;;;;-5.36;93.54;102242.38;5073487;28;20064;-80
2022/03/05 07:07:01;;;;;;;51.70;19.00;;;;;;;-5.28;93.87;102247.53;5073503;28;20107;-79
2022/03/05 07:09:27;;;;;;;52.80;19.25;;;;;;;-5.19;93.63;102252.72;5072715;28;20035;-80
2022/03/05 07:11:52;;;;;;;53.67;19.73;;;;;;;-5.09;93.58;102255.28;5073343;28;20169;-79
2022/03/05 07:14:17;;;;;;;55.42;18.95;;;;;;;-5.02;94.10;102260.44;5073301;28;20048;-78
2022/03/05 07:16:43;;;;;;;51.13;20.20;;;;;;;-4.93;94.28;102262.16;5055134;28;20547;-79
2022/03/05 07:19:08;;;;;;;58.53;21.15;;;;;;;-4.85;94.85;102262.13;5072788;28;20094;-80
2022/03/05 07:21:34;;;;;;;55.10;20.33;;;;;;;-4.74;95.55;102273.34;5055446;28;20035;-80
2022/03/05 07:23:59;;;;;;;51.10;20.55;;;;;;;-4.66;95.65;102274.19;5073159;28;20068;-81
2022/03/05 07:26:25;;;;;;;69.80;21.65;;;;;;;-4.55;95.94;102266.34;5073200;28;20419;-80
2022/03/05 07:28:51;;;;;;;61.05;21.38;;;;;;;-4.44;96.41;102274.94;5073178;28;20078;-79
2022/03/05 07:31:16;;;;;;;62.83;22.60;;;;;;;-4.31;96.38;102275.75;5073032;28;20032;-78
2022/03/05 07:33:42;;;;;;;68.05;22.15;;;;;;;-4.17;96.75;102280.84;5073018;28;20420;-80
2022/03/05 07:36:07;;;;;;;56.83;21.17;;;;;;;-4.07;96.95;102286.88;5054624;28;20028;-80
2022/03/05 07:38:33;;;;;;;60.10;21.38;;;;;;;-3.96;97.38;102295.44;5054904;28;20029;-78
2022/03/05 07:40:59;;;;;;;58.50;22.85;;;;;;;-3.87;97.43;102281.53;5072546;28;20113;-78
2022/03/05 07:43:27;;;;;;;57.85;22.02;;;;;;;-3.74;97.97;102280.56;5072476;28;20406;-79
2022/03/05 07:45:52;;;;;;;59.53;22.02;;;;;;;-3.60;98.04;102287.38;5055268;28;20021;-79
2022/03/05 07:48:19;;;;;;;61.33;22.05;;;;;;;-3.48;98.18;102281.22;5072492;28;20496;-82
2022/03/05 07:50:46;;;;;;;57.70;21.58;;;;;;;-3.39;97.97;102282.00;5072229;28;20063;-79
2022/03/05 07:53:12;;;;;;;58.47;21.52;;;;;;;-3.29;97.75;102280.16;5072454;28;20113;-80
2022/03/05 07:55:38;;;;;;;58.25;23.38;;;;;;;-3.15;97.69;102279.16;5072467;28;20079;-78
2022/03/05 07:58:03;;;;;;;57.63;22.23;;;;;;;-3.03;97.90;102281.63;5073239;28;20423;-79
2022/03/05 08:00:29;;;;;;;57.38;22.65;;;;;;;-2.92;97.38;102279.78;5057847;28;20039;-79
2022/03/05 08:02:54;;;;;;;52.45;21.98;;;;;;;-2.78;97.88;102287.44;5076430;28;20025;-77
2022/03/05 08:05:20;;;;;;;49.63;21.83;;;;;;;-2.66;97.24;102286.44;5074211;28;20045;-79
2022/03/05 08:07:45;;;;;;;50.95;21.00;;;;;;;-2.51;96.77;102282.78;5076114;28;20421;-80
2022/03/05 08:10:11;;;;;;;52.55;20.77;;;;;;;-2.38;96.38;102286.09;5075350;28;20040;-80
2022/03/05 08:12:36;;;;;;;47.88;21.70;;;;;;;-2.28;95.51;102285.09;5075016;28;20025;-80
2022/03/05 08:15:04;;;;;;;55.30;21.52;;;;;;;-2.14;94.93;102292.72;5076552;28;20036;-79
2022/03/05 08:17:29;;;;;;;52.33;21.85;;;;;;;-1.99;94.14;102291.63;5073749;28;20077;-79
2022/03/05 08:19:55;;;;;;;47.75;20.80;;;;;;;-1.83;94.23;102290.50;5073501;28;20048;-79
2022/03/05 08:22:21;;;;;;;51.58;21.30;;;;;;;-1.70;93.15;102291.19;5058697;28;20119;-77
2022/03/05 08:24:46;;;;;;;44.22;21.45;;;;;;;-1.54;92.68;102291.78;5076137;28;20029;-80
2022/03/05 08:27:12;;;;;;;49.80;21.40;;;;;;;-1.36;92.23;102293.22;5040422;28;20111;-78
2022/03/05 08:29:37;;;;;;;53.33;21.20;;;;;;;-1.18;91.57;102299.00;5057604;28;20072;-83
2022/03/05 08:32:03;;;;;;;49.10;22.35;;;;;;;-1.03;90.07;102301.38;5075545;28;20036;-80
2022/03/05 08:34:28;;;;;;;43.47;21.52;;;;;;;-0.87;88.86;102304.53;5075407;28;20098;-79
2022/03/05 08:36:54;;;;;;;50.13;20.98;;;;;;;-0.77;87.77;102310.44;5075592;28;20035;-77
2022/03/05 08:39:19;;;;;;;45.55;21.45;;;;;;;-0.59;87.76;102309.22;5075276;28;20033;-79
2022/03/05 08:41:45;;;;;;;44.05;21.27;;;;;;;-0.41;86.77;102315.81;5057379;28;20097;-75
2022/03/05 08:44:10;;;;;;;44.92;20.98;;;;;;;-0.20;85.92;102302.28;5075019;28;20072;-78
2022/03/05 08:46:36;;;;;;;47.92;23.00;;;;;;;0.04;85.20;102312.22;5057917;28;20024;-79
2022/03/05 08:49:02;;;;;;;49.08;21.35;;;;;;;0.20;83.84;102304.91;5075247;28;20384;-78
2022/03/05 08:51:27;;;;;;;45.25;21.48;;;;;;;0.43;83.48;102299.09;5075838;28;20044;-80
2022/03/05 08:53:53;;;;;;;43.45;21.52;;;;;;;0.69;81.74;102293.22;5057078;28;20037;-77
2022/03/05 08:56:19;;;;;;;42.13;21.40;;;;;;;1.12;81.29;102305.16;5057255;28;20089;-79
2022/03/05 08:58:44;;;;;;;49.42;23.10;;;;;;;1.46;77.75;102301.56;5074598;28;20422;-80
2022/03/05 09:01:09;;;;;;;45.72;22.35;;;;;;;2.41;76.07;102289.91;5056776;28;20048;-77
2022/03/05 09:03:35;;;;;;;39.92;20.88;;;;;;;3.60;71.73;102296.25;5074622;28;20025;-78
2022/03/05 09:06:04;;;;;;;41.45;20.98;;;;;;;4.66;65.04;102287.59;5074946;28;20137;-78
2022/03/05 09:08:29;;;;;;;38.53;20.35;;;;;;;6.21;61.63;102284.13;5074267;28;20453;-77
2022/03/05 09:10:55;;;;;;;40.30;21.45;;;;;;;7.88;55.03;102285.09;5074940;28;20047;-74
2022/03/05 09:13:20;;;;;;;39.63;20.95;;;;;;;8.97;50.37;102290.28;5074621;28;20462;-78
2022/03/05 09:15:45;;;;;;;40.40;21.88;;;;;;;10.15;45.87;102295.28;5056202;28;20041;-78
2022/03/05 09:18:11;;;;;;;40.13;21.70;;;;;;;9.89;46.28;102295.16;5056669;28;20054;-78
2022/03/05 09:20:37;;;;;;;39.30;21.15;;;;;;;10.94;44.93;102303.34;5040152;28;20041;-78
2022/03/05 09:23:03;;;;;;;38.80;21.42;;;;;;;11.46;42.19;102301.50;5074687;28;20087;-81
2022/03/05 09:25:28;;;;;;;39.15;21.17;;;;;;;11.26;42.20;102292.28;5056736;28;20102;-81
2022/03/05 09:27:54;;;;;;;38.45;21.35;;;;;;;11.22;42.21;102293.44;5074483;28;20052;-80
2022/03/05 09:30:20;;;;;;;38.17;21.88;;;;;;;11.44;42.09;102293.63;5073607;28;20454;-81
2022/03/05 09:32:46;;;;;;;36.97;21.73;;;;;;;11.40;42.03;102294.78;5072839;28;20107;-79
2022/03/05 09:35:11;;;;;;;36.78;21.10;;;;;;;11.89;40.30;102294.91;5072993;28;20068;-81
2022/03/05 09:37:37;;;;;;;37.28;22.25;;;;;;;11.28;42.26;102293.84;5074078;28;20040;-80
2022/03/05 09:40:04;;;;;;;42.13;23.25;;;;;;;11.78;41.33;102285.03;5056353;28;20020;-78
2022/03/05 09:42:30;;;;;;;39.55;22.75;;;;;;;11.75;41.37;102295.91;5073805;28;20033;-80
2022/03/05 09:44:55;;;;;;;43.70;23.13;;;;;;;12.08;40.28;102310.44;5074261;28;20149;-79
2022/03/05 09:47:22;;;;;;;37.13;21.70;;;;;;;12.26;39.70;102301.06;5056195;28;20032;-79
2022/03/05 09:49:48;;;;;;;37.20;22.27;;;;;;;12.37;39.52;102294.91;5074755;28;20107;-80
2022/03/05 09:52:14;;;;;;;36.65;21.38;;;;;;;12.12;40.26;102293.22;5056261;28;20056;-80
2022/03/05 09:54:39;;;;;;;43.47;23.00;;;;;;;11.80;41.67;102293.75;5073837;28;20037;-80
2022/03/05 09:57:13;;;;;;;40.97;23.60;;;;;;;12.12;40.91;102299.44;5073914;28;20043;-79
2022/03/05 09:59:39;;;;;;;37.97;23.20;;;;;;;11.69;40.86;102296.34;5056087;28;20485;-79
2022/03/05 10:02:05;;;;;;;39.40;23.23;;;;;;;11.54;40.78;102288.50;5073951;28;20166;-76
2022/03/05 10:04:32;;;;;;;40.50;23.38;;;;;;;12.22;41.60;102301.41;5074305;28;20025;-80
2022/03/05 10:07:10;;;;;;;36.65;22.95;;;;;;;12.70;38.63;102291.53;5074190;28;20033;-80
2022/03/05 10:09:37;;;;;;;35.45;22.35;;;;;;;13.03;37.46;102294.34;5074362;28;20123;-80
2022/03/05 10:12:35;;;;;;;39.83;22.73;;;;;;;12.43;39.80;102290.94;5073834;28;20101;-80
2022/03/05 10:15:03;;;;;;;36.80;23.15;;;;;;;12.83;38.71;102288.75;5074180;28;20107;-81
2022/03/05 10:17:29;;;;;;;41.53;23.15;;;;;;;12.94;39.22;102293.25;5073740;28;20487;-81
2022/03/05 10:20:05;;;;;;;34.45;21.60;;;;;;;13.66;35.84;102294.75;5074270;28;20029;-81
2022/03/05 10:22:30;;;;;;;37.80;23.67;;;;;;;13.29;36.10;102291.47;5073941;28;20040;-81
2022/03/05 10:24:56;;;;;;;42.65;24.17;;;;;;;13.54;36.95;102296.59;5073647;28;20384;-81
2022/03/05 10:27:21;;;;;;;39.70;23.63;;;;;;;14.05;36.30;102289.78;5033680;28;1139415;-81
2022/03/05 10:29:47;;;;;;;41.83;23.75;;;;;;;14.07;36.68;102285.16;5074634;28;20342;-81
2022/03/05 10:32:15;;;;;;;38.92;24.15;;;;;;;14.22;36.67;102292.91;5074057;28;20388;-82
2022/03/05 10:34:52;;;;;;;37.75;23.42;;;;;;;15.04;34.95;102289.56;5074260;28;20024;-84
2022/03/05 10:37:20;;;;;;;38.53;23.58;;;;;;;14.71;35.16;102291.47;5074258;28;20384;-83
2022/03/05 10:39:47;;;;;;;39.20;24.80;;;;;;;14.29;35.56;102288.75;5056965;28;20039;-83
2022/03/05 10:42:16;;;;;;;40.70;24.40;;;;;;;14.53;34.65;102285.81;5074696;28;20058;-82
2022/03/05 10:44:41;;;;;;;40.47;24.08;;;;;;;14.61;35.43;102287.88;5073718;28;20086;-81
2022/03/05 10:47:07;;;;;;;42.42;24.80;;;;;;;14.56;36.38;102288.25;5057205;28;20488;-82
2022/03/05 10:49:37;;;;;;;40.80;23.42;;;;;;;15.00;34.46;102293.47;5074039;28;20062;-82
2022/03/05 10:52:03;;;;;;;38.28;24.02;;;;;;;14.55;35.02;102294.56;5073961;28;20057;-81
2022/03/05 10:54:31;;;;;;;40.80;24.30;;;;;;;13.65;35.70;102298.41;5055954;28;20511;-83
2022/03/05 10:57:11;;;;;;;38.05;25.00;;;;;;;13.96;36.92;102300.41;5073898;28;20039;-79
2022/03/05 10:59:39;;;;;;;38.83;24.50;;;;;;;13.96;36.01;102293.25;5073811;28;20039;-79
2022/03/05 11:02:06;;;;;;;42.38;25.17;;;;;;;14.39;34.24;102297.72;5073922;28;20094;-80
2022/03/05 11:04:35;;;;;;;40.88;24.10;;;;;;;14.00;36.62;102294.69;5074003;28;20036;-79
2022/03/05 11:07:03;;;;;;;42.47;25.17;;;;;;;14.52;34.11;102296.66;5076034;28;20424;-79